sensor_id;sensor_type;location;lat;lon;timestamp;temperature;humidity
33793;DHT22;20105;48.764;9.178;2022-11-11T00:02:01;6.60;99.90
33793;DHT22;20105;48.764;9.178;2022-11-11T00:04:27;6.60;99.90
33793;DHT22;20105;48.764;9.178;2022-11-11T00:06:52;6.60;99.90
33793;DHT22;20105;48.764;9.178;2022-11-11T00:09:18;6.60;99.90
33793;DHT22;20105;48.764;9.178;2022-11-11T00:11:43;6.60;99.90
33793;DHT22;20105;48.764;9.178;2022-11-11T00:14:09;6.60;99.90
33793;DHT22;20105;48.764;9.178;2022-11-11T00:16:35;6.50;99.90
33793;DHT22;20105;48.764;9.178;2022-11-11T00:19:19;6.50;99.90
33793;DHT22;20105;48.764;9.178;2022-11-11T00:22:03;6.50;99.90
33793;DHT22;20105;48.764;9.178;2022-11-11T00:24:47;6.50;99.90
33793;DHT22;20105;48.764;9.178;2022-11-11T00:27:31;6.40;99.90
33793;DHT22;20105;48.764;9.178;2022-11-11T00:29:56;6.40;99.90
33793;DHT22;20105;48.764;9.178;2022-11-11T00:32:22;6.40;99.90
33793;DHT22;20105;48.764;9.178;2022-11-11T00:34:48;6.40;99.90
33793;DHT22;20105;48.764;9.178;2022-11-11T00:37:33;6.40;99.90
33793;DHT22;20105;48.764;9.178;2022-11-11T00:39:59;6.40;99.90
33793;DHT22;20105;48.764;9.178;2022-11-11T00:42:24;6.40;99.90
33793;DHT22;20105;48.764;9.178;2022-11-11T00:44:50;6.40;99.90
33793;DHT22;20105;48.764;9.178;2022-11-11T00:47:15;6.40;99.90
33793;DHT22;20105;48.764;9.178;2022-11-11T00:49:59;6.40;99.90
33793;DHT22;20105;48.764;9.178;2022-11-11T00:52:45;6.40;99.90
33793;DHT22;20105;48.764;9.178;2022-11-11T00:55:11;6.40;99.90
33793;DHT22;20105;48.764;9.178;2022-11-11T00:57:37;6.40;99.90
33793;DHT22;20105;48.764;9.178;2022-11-11T01:00:03;6.30;99.90
33793;DHT22;20105;48.764;9.178;2022-11-11T01:02:32;6.30;99.90
33793;DHT22;20105;48.764;9.178;2022-11-11T01:04:58;6.30;99.90
33793;DHT22;20105;48.764;9.178;2022-11-11T01:07:23;6.30;99.90
33793;DHT22;20105;48.764;9.178;2022-11-11T01:09:49;6.30;99.90
33793;DHT22;20105;48.764;9.178;2022-11-11T01:12:15;6.30;99.90
33793;DHT22;20105;48.764;9.178;2022-11-11T01:14:41;6.30;99.90
33793;DHT22;20105;48.764;9.178;2022-11-11T01:17:06;6.30;99.90
33793;DHT22;20105;48.764;9.178;2022-11-11T01:19:34;6.30;99.90
33793;DHT22;20105;48.764;9.178;2022-11-11T01:22:00;6.20;99.90
33793;DHT22;20105;48.764;9.178;2022-11-11T01:24:26;6.20;99.90
33793;DHT22;20105;48.764;9.178;2022-11-11T01:26:51;6.20;99.90
33793;DHT22;20105;48.764;9.178;2022-11-11T01:29:17;6.10;99.90
33793;DHT22;20105;48.764;9.178;2022-11-11T01:31:43;6.10;99.90
33793;DHT22;20105;48.764;9.178;2022-11-11T01:34:09;6.10;99.90
33793;DHT22;20105;48.764;9.178;2022-11-11T01:36:34;6.10;99.90
33793;DHT22;20105;48.764;9.178;2022-11-11T01:39:00;6.10;99.90
33793;DHT22;20105;48.764;9.178;2022-11-11T01:41:28;6.20;99.90
33793;DHT22;20105;48.764;9.178;2022-11-11T01:44:02;6.20;99.90
33793;DHT22;20105;48.764;9.178;2022-11-11T01:46:35;6.20;99.90
33793;DHT22;20105;48.764;9.178;2022-11-11T01:52:06;6.20;99.90
33793;DHT22;20105;48.764;9.178;2022-11-11T01:55:09;6.10;99.90
33793;DHT22;20105;48.764;9.178;2022-11-11T01:57:47;6.10;99.90
33793;DHT22;20105;48.764;9.178;2022-11-11T02:00:17;6.10;99.90
33793;DHT22;20105;48.764;9.178;2022-11-11T02:02:45;6.10;99.90
33793;DHT22;20105;48.764;9.178;2022-11-11T02:05:12;6.10;99.90
33793;DHT22;20105;48.764;9.178;2022-11-11T02:08:01;6.10;99.90
33793;DHT22;20105;48.764;9.178;2022-11-11T02:10:29;6.10;99.90
33793;DHT22;20105;48.764;9.178;2022-11-11T02:13:00;6.10;99.90
33793;DHT22;20105;48.764;9.178;2022-11-11T02:15:44;6.10;99.90
33793;DHT22;20105;48.764;9.178;2022-11-11T02:18:10;6.10;99.90
33793;DHT22;20105;48.764;9.178;2022-11-11T02:20:40;6.10;99.90
33793;DHT22;20105;48.764;9.178;2022-11-11T02:25:37;6.10;99.90
33793;DHT22;20105;48.764;9.178;2022-11-11T02:28:05;6.10;99.90
33793;DHT22;20105;48.764;9.178;2022-11-11T02:30:32;6.10;99.90
33793;DHT22;20105;48.764;9.178;2022-11-11T02:32:58;6.00;99.90
33793;DHT22;20105;48.764;9.178;2022-11-11T02:35:31;6.00;99.90
33793;DHT22;20105;48.764;9.178;2022-11-11T02:37:57;6.00;99.90
33793;DHT22;20105;48.764;9.178;2022-11-11T02:40:34;6.00;99.90
33793;DHT22;20105;48.764;9.178;2022-11-11T02:43:00;6.10;99.90
33793;DHT22;20105;48.764;9.178;2022-11-11T02:45:26;6.00;99.90
33793;DHT22;20105;48.764;9.178;2022-11-11T02:47:51;6.00;99.90
33793;DHT22;20105;48.764;9.178;2022-11-11T02:50:17;6.00;99.90
33793;DHT22;20105;48.764;9.178;2022-11-11T02:52:43;5.90;99.90
33793;DHT22;20105;48.764;9.178;2022-11-11T02:55:09;5.90;99.90
33793;DHT22;20105;48.764;9.178;2022-11-11T02:57:35;5.90;99.90
33793;DHT22;20105;48.764;9.178;2022-11-11T03:00:01;5.90;99.90
33793;DHT22;20105;48.764;9.178;2022-11-11T03:02:27;5.90;99.90
33793;DHT22;20105;48.764;9.178;2022-11-11T03:04:54;5.90;99.90
33793;DHT22;20105;48.764;9.178;2022-11-11T03:07:21;5.90;99.90
33793;DHT22;20105;48.764;9.178;2022-11-11T03:09:47;5.80;99.90
33793;DHT22;20105;48.764;9.178;2022-11-11T03:12:13;5.80;99.90
33793;DHT22;20105;48.764;9.178;2022-11-11T03:14:38;5.80;99.90
33793;DHT22;20105;48.764;9.178;2022-11-11T03:17:04;5.80;99.90
33793;DHT22;20105;48.764;9.178;2022-11-11T03:19:48;5.80;99.90
33793;DHT22;20105;48.764;9.178;2022-11-11T03:22:14;5.70;99.90
33793;DHT22;20105;48.764;9.178;2022-11-11T03:24:39;5.80;99.90
33793;DHT22;20105;48.764;9.178;2022-11-11T03:27:23;5.70;99.90
33793;DHT22;20105;48.764;9.178;2022-11-11T03:29:49;5.80;99.90
33793;DHT22;20105;48.764;9.178;2022-11-11T03:32:14;5.80;99.90
33793;DHT22;20105;48.764;9.178;2022-11-11T03:34:40;5.80;99.90
33793;DHT22;20105;48.764;9.178;2022-11-11T03:37:08;5.80;99.90
33793;DHT22;20105;48.764;9.178;2022-11-11T03:39:52;5.80;99.90
33793;DHT22;20105;48.764;9.178;2022-11-11T03:42:18;5.80;99.90
33793;DHT22;20105;48.764;9.178;2022-11-11T03:44:43;5.80;99.90
33793;DHT22;20105;48.764;9.178;2022-11-11T03:47:09;5.80;99.90
33793;DHT22;20105;48.764;9.178;2022-11-11T03:49:35;5.80;99.90
33793;DHT22;20105;48.764;9.178;2022-11-11T03:52:00;5.80;99.90
33793;DHT22;20105;48.764;9.178;2022-11-11T03:54:26;5.80;99.90
33793;DHT22;20105;48.764;9.178;2022-11-11T03:56:51;5.70;99.90
33793;DHT22;20105;48.764;9.178;2022-11-11T03:59:17;5.80;99.90
33793;DHT22;20105;48.764;9.178;2022-11-11T04:01:43;5.70;99.90
33793;DHT22;20105;48.764;9.178;2022-11-11T04:04:27;5.70;99.90
33793;DHT22;20105;48.764;9.178;2022-11-11T04:07:11;5.70;99.90
33793;DHT22;20105;48.764;9.178;2022-11-11T04:09:55;5.70;99.90
33793;DHT22;20105;48.764;9.178;2022-11-11T04:12:40;5.70;99.90
33793;DHT22;20105;48.764;9.178;2022-11-11T04:15:25;5.70;99.90
33793;DHT22;20105;48.764;9.178;2022-11-11T04:18:09;5.70;99.90
33793;DHT22;20105;48.764;9.178;2022-11-11T04:20:35;5.70;99.90
33793;DHT22;20105;48.764;9.178;2022-11-11T04:23:19;5.70;99.90
33793;DHT22;20105;48.764;9.178;2022-11-11T04:25:44;5.60;99.90
33793;DHT22;20105;48.764;9.178;2022-11-11T04:28:17;5.60;99.90
33793;DHT22;20105;48.764;9.178;2022-11-11T04:31:01;5.60;99.90
33793;DHT22;20105;48.764;9.178;2022-11-11T04:33:27;5.60;99.90
33793;DHT22;20105;48.764;9.178;2022-11-11T04:35:52;5.60;99.90
33793;DHT22;20105;48.764;9.178;2022-11-11T04:38:18;5.60;99.90
33793;DHT22;20105;48.764;9.178;2022-11-11T04:41:02;5.60;99.90
33793;DHT22;20105;48.764;9.178;2022-11-11T04:43:31;5.60;99.90
33793;DHT22;20105;48.764;9.178;2022-11-11T04:46:00;5.60;99.90
33793;DHT22;20105;48.764;9.178;2022-11-11T04:48:26;5.60;99.90
33793;DHT22;20105;48.764;9.178;2022-11-11T04:50:52;5.60;99.90
33793;DHT22;20105;48.764;9.178;2022-11-11T04:53:18;5.60;99.90
33793;DHT22;20105;48.764;9.178;2022-11-11T04:55:44;5.60;99.90
33793;DHT22;20105;48.764;9.178;2022-11-11T04:58:33;5.50;99.90
33793;DHT22;20105;48.764;9.178;2022-11-11T05:00:59;5.50;99.90
33793;DHT22;20105;48.764;9.178;2022-11-11T05:03:25;5.50;99.90
33793;DHT22;20105;48.764;9.178;2022-11-11T05:08:47;5.50;99.90
33793;DHT22;20105;48.764;9.178;2022-11-11T05:11:27;5.50;99.90
33793;DHT22;20105;48.764;9.178;2022-11-11T05:13:55;5.50;99.90
33793;DHT22;20105;48.764;9.178;2022-11-11T05:19:28;5.50;99.90
33793;DHT22;20105;48.764;9.178;2022-11-11T05:22:25;5.40;99.90
33793;DHT22;20105;48.764;9.178;2022-11-11T05:24:52;5.40;99.90
33793;DHT22;20105;48.764;9.178;2022-11-11T05:27:36;5.40;99.90
33793;DHT22;20105;48.764;9.178;2022-11-11T05:30:03;5.30;99.90
33793;DHT22;20105;48.764;9.178;2022-11-11T05:32:29;5.30;99.90
33793;DHT22;20105;48.764;9.178;2022-11-11T05:34:55;5.30;99.90
33793;DHT22;20105;48.764;9.178;2022-11-11T05:37:21;5.30;99.90
33793;DHT22;20105;48.764;9.178;2022-11-11T05:39:47;5.20;99.90
33793;DHT22;20105;48.764;9.178;2022-11-11T05:42:12;5.20;99.90
33793;DHT22;20105;48.764;9.178;2022-11-11T05:44:38;5.20;99.90
33793;DHT22;20105;48.764;9.178;2022-11-11T05:47:04;5.20;99.90
33793;DHT22;20105;48.764;9.178;2022-11-11T05:49:29;5.20;99.90
33793;DHT22;20105;48.764;9.178;2022-11-11T05:51:55;5.20;99.90
33793;DHT22;20105;48.764;9.178;2022-11-11T05:54:21;5.20;99.90
33793;DHT22;20105;48.764;9.178;2022-11-11T05:56:47;5.10;99.90
33793;DHT22;20105;48.764;9.178;2022-11-11T05:59:12;5.10;99.90
33793;DHT22;20105;48.764;9.178;2022-11-11T06:01:38;5.10;99.90
33793;DHT22;20105;48.764;9.178;2022-11-11T06:04:04;5.10;99.90
33793;DHT22;20105;48.764;9.178;2022-11-11T06:06:31;5.10;99.90
33793;DHT22;20105;48.764;9.178;2022-11-11T06:08:57;5.10;99.90
33793;DHT22;20105;48.764;9.178;2022-11-11T06:11:23;5.10;99.90
33793;DHT22;20105;48.764;9.178;2022-11-11T06:13:49;5.20;99.90
33793;DHT22;20105;48.764;9.178;2022-11-11T06:16:15;5.20;99.90
33793;DHT22;20105;48.764;9.178;2022-11-11T06:18:41;5.20;99.90
33793;DHT22;20105;48.764;9.178;2022-11-11T06:21:07;5.20;99.90
33793;DHT22;20105;48.764;9.178;2022-11-11T06:23:33;5.20;99.90
33793;DHT22;20105;48.764;9.178;2022-11-11T06:25:58;5.20;99.90
33793;DHT22;20105;48.764;9.178;2022-11-11T06:28:53;5.30;99.90
33793;DHT22;20105;48.764;9.178;2022-11-11T06:31:23;5.30;99.90
33793;DHT22;20105;48.764;9.178;2022-11-11T06:33:48;5.30;99.90
33793;DHT22;20105;48.764;9.178;2022-11-11T06:36:16;5.30;99.90
33793;DHT22;20105;48.764;9.178;2022-11-11T06:38:42;5.40;99.90
33793;DHT22;20105;48.764;9.178;2022-11-11T06:41:09;5.40;99.90
33793;DHT22;20105;48.764;9.178;2022-11-11T06:43:37;5.40;99.90
33793;DHT22;20105;48.764;9.178;2022-11-11T06:46:03;5.40;99.90
33793;DHT22;20105;48.764;9.178;2022-11-11T06:48:29;5.50;99.90
33793;DHT22;20105;48.764;9.178;2022-11-11T06:51:03;5.50;99.90
33793;DHT22;20105;48.764;9.178;2022-11-11T06:53:29;5.40;99.90
33793;DHT22;20105;48.764;9.178;2022-11-11T06:55:55;5.50;99.90
33793;DHT22;20105;48.764;9.178;2022-11-11T06:58:21;5.50;99.90
33793;DHT22;20105;48.764;9.178;2022-11-11T07:00:48;5.50;99.90
33793;DHT22;20105;48.764;9.178;2022-11-11T07:03:16;5.60;99.90
33793;DHT22;20105;48.764;9.178;2022-11-11T07:05:42;5.60;99.90
33793;DHT22;20105;48.764;9.178;2022-11-11T07:08:10;5.60;99.90
33793;DHT22;20105;48.764;9.178;2022-11-11T07:10:39;5.70;99.90
33793;DHT22;20105;48.764;9.178;2022-11-11T07:13:05;5.80;99.90
33793;DHT22;20105;48.764;9.178;2022-11-11T07:15:32;5.80;99.90
33793;DHT22;20105;48.764;9.178;2022-11-11T07:17:59;5.90;99.90
33793;DHT22;20105;48.764;9.178;2022-11-11T07:20:24;5.90;99.90
33793;DHT22;20105;48.764;9.178;2022-11-11T07:22:50;6.00;99.90
33793;DHT22;20105;48.764;9.178;2022-11-11T07:25:16;6.10;99.90
33793;DHT22;20105;48.764;9.178;2022-11-11T07:27:41;6.10;99.90
33793;DHT22;20105;48.764;9.178;2022-11-11T07:30:08;6.10;99.90
33793;DHT22;20105;48.764;9.178;2022-11-11T07:32:34;6.20;99.90
33793;DHT22;20105;48.764;9.178;2022-11-11T07:35:00;6.30;99.90
33793;DHT22;20105;48.764;9.178;2022-11-11T07:37:26;6.40;99.90
33793;DHT22;20105;48.764;9.178;2022-11-11T07:39:52;6.40;99.90
33793;DHT22;20105;48.764;9.178;2022-11-11T07:42:19;6.50;99.90
33793;DHT22;20105;48.764;9.178;2022-11-11T07:44:44;6.60;99.90
33793;DHT22;20105;48.764;9.178;2022-11-11T07:47:10;6.60;99.90
33793;DHT22;20105;48.764;9.178;2022-11-11T07:49:36;6.60;99.90
33793;DHT22;20105;48.764;9.178;2022-11-11T07:52:02;6.60;99.90
33793;DHT22;20105;48.764;9.178;2022-11-11T07:54:27;6.70;99.90
33793;DHT22;20105;48.764;9.178;2022-11-11T07:56:53;6.80;99.90
33793;DHT22;20105;48.764;9.178;2022-11-11T07:59:18;6.80;99.90
33793;DHT22;20105;48.764;9.178;2022-11-11T08:01:44;6.70;99.90
33793;DHT22;20105;48.764;9.178;2022-11-11T08:04:10;6.80;99.90
33793;DHT22;20105;48.764;9.178;2022-11-11T08:06:35;6.90;99.90
33793;DHT22;20105;48.764;9.178;2022-11-11T08:09:01;7.00;99.90
33793;DHT22;20105;48.764;9.178;2022-11-11T08:11:26;7.00;99.90
33793;DHT22;20105;48.764;9.178;2022-11-11T08:14:11;7.00;99.90
33793;DHT22;20105;48.764;9.178;2022-11-11T08:16:36;7.10;99.90
33793;DHT22;20105;48.764;9.178;2022-11-11T08:19:02;7.20;99.90
33793;DHT22;20105;48.764;9.178;2022-11-11T08:21:27;7.20;99.90
33793;DHT22;20105;48.764;9.178;2022-11-11T08:23:53;7.20;99.90
33793;DHT22;20105;48.764;9.178;2022-11-11T08:26:20;7.30;99.90
33793;DHT22;20105;48.764;9.178;2022-11-11T08:28:46;7.30;99.90
33793;DHT22;20105;48.764;9.178;2022-11-11T08:31:12;7.30;99.90
33793;DHT22;20105;48.764;9.178;2022-11-11T08:33:37;7.40;99.90
33793;DHT22;20105;48.764;9.178;2022-11-11T08:36:03;7.50;99.90
33793;DHT22;20105;48.764;9.178;2022-11-11T08:38:30;7.40;99.90
33793;DHT22;20105;48.764;9.178;2022-11-11T08:41:00;7.40;99.90
33793;DHT22;20105;48.764;9.178;2022-11-11T08:43:26;7.40;99.90
33793;DHT22;20105;48.764;9.178;2022-11-11T08:45:52;7.50;99.90
33793;DHT22;20105;48.764;9.178;2022-11-11T08:48:18;7.50;99.90
33793;DHT22;20105;48.764;9.178;2022-11-11T08:50:44;7.60;99.90
33793;DHT22;20105;48.764;9.178;2022-11-11T08:53:10;7.70;99.90
33793;DHT22;20105;48.764;9.178;2022-11-11T08:55:36;7.70;99.90
33793;DHT22;20105;48.764;9.178;2022-11-11T08:58:05;7.80;99.90
33793;DHT22;20105;48.764;9.178;2022-11-11T09:00:32;7.80;99.90
33793;DHT22;20105;48.764;9.178;2022-11-11T09:03:02;7.90;99.90
33793;DHT22;20105;48.764;9.178;2022-11-11T09:05:29;8.00;99.90
33793;DHT22;20105;48.764;9.178;2022-11-11T09:07:55;8.10;99.90
33793;DHT22;20105;48.764;9.178;2022-11-11T09:10:21;8.20;99.90
33793;DHT22;20105;48.764;9.178;2022-11-11T09:12:46;8.40;99.90
33793;DHT22;20105;48.764;9.178;2022-11-11T09:15:12;8.40;99.90
33793;DHT22;20105;48.764;9.178;2022-11-11T09:17:38;8.50;99.90
33793;DHT22;20105;48.764;9.178;2022-11-11T09:20:04;8.60;99.90
33793;DHT22;20105;48.764;9.178;2022-11-11T09:22:29;8.70;99.90
33793;DHT22;20105;48.764;9.178;2022-11-11T09:24:55;8.90;99.90
33793;DHT22;20105;48.764;9.178;2022-11-11T09:27:21;9.00;99.90
33793;DHT22;20105;48.764;9.178;2022-11-11T09:29:47;8.90;99.90
33793;DHT22;20105;48.764;9.178;2022-11-11T09:32:13;8.90;99.90
33793;DHT22;20105;48.764;9.178;2022-11-11T09:34:38;9.00;99.90
33793;DHT22;20105;48.764;9.178;2022-11-11T09:37:04;9.10;99.90
33793;DHT22;20105;48.764;9.178;2022-11-11T09:39:30;9.10;99.90
33793;DHT22;20105;48.764;9.178;2022-11-11T09:42:01;9.20;99.90
33793;DHT22;20105;48.764;9.178;2022-11-11T09:44:41;9.30;99.90
33793;DHT22;20105;48.764;9.178;2022-11-11T09:50:13;9.60;99.90
33793;DHT22;20105;48.764;9.178;2022-11-11T09:52:56;9.60;99.90
33793;DHT22;20105;48.764;9.178;2022-11-11T09:58:17;9.80;99.90
33793;DHT22;20105;48.764;9.178;2022-11-11T10:00:55;9.80;99.90
33793;DHT22;20105;48.764;9.178;2022-11-11T10:03:24;9.90;99.90
33793;DHT22;20105;48.764;9.178;2022-11-11T10:05:55;10.00;99.90
33793;DHT22;20105;48.764;9.178;2022-11-11T10:08:24;10.10;99.90
33793;DHT22;20105;48.764;9.178;2022-11-11T10:10:57;10.30;99.90
33793;DHT22;20105;48.764;9.178;2022-11-11T10:21:15;10.50;99.90
33793;DHT22;20105;48.764;9.178;2022-11-11T10:23:45;10.60;99.90
33793;DHT22;20105;48.764;9.178;2022-11-11T10:26:19;10.60;99.90
33793;DHT22;20105;48.764;9.178;2022-11-11T10:28:49;10.60;99.90
33793;DHT22;20105;48.764;9.178;2022-11-11T10:31:20;10.50;99.90
33793;DHT22;20105;48.764;9.178;2022-11-11T10:36:27;10.50;99.90
33793;DHT22;20105;48.764;9.178;2022-11-11T10:39:02;10.50;99.90
33793;DHT22;20105;48.764;9.178;2022-11-11T10:41:42;10.40;99.90
33793;DHT22;20105;48.764;9.178;2022-11-11T10:44:28;10.40;99.90
33793;DHT22;20105;48.764;9.178;2022-11-11T10:49:40;10.60;99.90
33793;DHT22;20105;48.764;9.178;2022-11-11T10:52:31;10.70;99.90
33793;DHT22;20105;48.764;9.178;2022-11-11T10:57:48;11.00;99.90
33793;DHT22;20105;48.764;9.178;2022-11-11T11:00:16;11.00;99.90
33793;DHT22;20105;48.764;9.178;2022-11-11T11:02:56;11.00;99.90
33793;DHT22;20105;48.764;9.178;2022-11-11T11:05:35;11.00;99.90
33793;DHT22;20105;48.764;9.178;2022-11-11T11:08:10;11.00;99.90
33793;DHT22;20105;48.764;9.178;2022-11-11T11:10:57;11.10;99.90
33793;DHT22;20105;48.764;9.178;2022-11-11T11:16:03;11.40;99.90
33793;DHT22;20105;48.764;9.178;2022-11-11T11:18:30;11.50;99.90
33793;DHT22;20105;48.764;9.178;2022-11-11T11:21:06;11.60;99.90
33793;DHT22;20105;48.764;9.178;2022-11-11T11:23:43;11.70;99.90
33793;DHT22;20105;48.764;9.178;2022-11-11T11:26:11;11.80;99.90
33793;DHT22;20105;48.764;9.178;2022-11-11T11:28:58;11.90;99.90
33793;DHT22;20105;48.764;9.178;2022-11-11T11:31:37;11.90;99.90
33793;DHT22;20105;48.764;9.178;2022-11-11T11:34:03;12.00;99.90
33793;DHT22;20105;48.764;9.178;2022-11-11T11:36:29;12.20;99.90
33793;DHT22;20105;48.764;9.178;2022-11-11T11:38:55;12.50;99.90
33793;DHT22;20105;48.764;9.178;2022-11-11T11:41:53;12.70;99.90
33793;DHT22;20105;48.764;9.178;2022-11-11T11:44:30;12.70;99.90
33793;DHT22;20105;48.764;9.178;2022-11-11T11:50:54;12.60;99.90
33793;DHT22;20105;48.764;9.178;2022-11-11T11:53:50;12.40;99.90
33793;DHT22;20105;48.764;9.178;2022-11-11T12:17:53;12.80;99.90
33793;DHT22;20105;48.764;9.178;2022-11-11T12:20:27;12.90;99.90
33793;DHT22;20105;48.764;9.178;2022-11-11T12:23:13;12.80;99.90
33793;DHT22;20105;48.764;9.178;2022-11-11T12:26:00;12.90;99.90
33793;DHT22;20105;48.764;9.178;2022-11-11T12:32:01;13.20;99.90
33793;DHT22;20105;48.764;9.178;2022-11-11T12:34:35;13.20;99.90
33793;DHT22;20105;48.764;9.178;2022-11-11T12:40:00;13.20;99.90
33793;DHT22;20105;48.764;9.178;2022-11-11T12:48:35;13.10;99.90
33793;DHT22;20105;48.764;9.178;2022-11-11T12:51:16;13.20;99.90
33793;DHT22;20105;48.764;9.178;2022-11-11T12:53:56;13.40;99.90
33793;DHT22;20105;48.764;9.178;2022-11-11T12:56:46;13.50;99.90
33793;DHT22;20105;48.764;9.178;2022-11-11T12:59:32;13.50;99.90
33793;DHT22;20105;48.764;9.178;2022-11-11T13:16:12;13.70;99.90
33793;DHT22;20105;48.764;9.178;2022-11-11T13:18:42;13.70;99.90
33793;DHT22;20105;48.764;9.178;2022-11-11T13:21:17;13.50;99.90
33793;DHT22;20105;48.764;9.178;2022-11-11T13:23:43;13.50;99.90
33793;DHT22;20105;48.764;9.178;2022-11-11T13:26:27;13.60;99.90
33793;DHT22;20105;48.764;9.178;2022-11-11T13:31:53;13.90;99.90
33793;DHT22;20105;48.764;9.178;2022-11-11T13:34:20;14.00;99.90
33793;DHT22;20105;48.764;9.178;2022-11-11T13:36:49;14.20;99.90
33793;DHT22;20105;48.764;9.178;2022-11-11T13:39:36;14.30;99.90
33793;DHT22;20105;48.764;9.178;2022-11-11T13:42:02;14.30;99.90
33793;DHT22;20105;48.764;9.178;2022-11-11T13:44:44;14.40;99.90
33793;DHT22;20105;48.764;9.178;2022-11-11T13:47:19;14.30;99.90
33793;DHT22;20105;48.764;9.178;2022-11-11T13:50:03;14.20;99.90
33793;DHT22;20105;48.764;9.178;2022-11-11T13:52:37;14.10;99.90
33793;DHT22;20105;48.764;9.178;2022-11-11T13:55:19;13.90;99.90
33793;DHT22;20105;48.764;9.178;2022-11-11T13:57:50;14.00;99.90
33793;DHT22;20105;48.764;9.178;2022-11-11T14:02:42;14.00;99.90
33793;DHT22;20105;48.764;9.178;2022-11-11T14:10:40;14.10;99.90
33793;DHT22;20105;48.764;9.178;2022-11-11T14:15:49;14.00;99.90
33793;DHT22;20105;48.764;9.178;2022-11-11T14:20:46;14.00;99.90
33793;DHT22;20105;48.764;9.178;2022-11-11T14:23:31;14.10;99.90
33793;DHT22;20105;48.764;9.178;2022-11-11T14:28:52;14.10;99.90
33793;DHT22;20105;48.764;9.178;2022-11-11T14:31:25;14.10;99.90
33793;DHT22;20105;48.764;9.178;2022-11-11T14:39:40;14.00;99.90
33793;DHT22;20105;48.764;9.178;2022-11-11T14:47:52;13.90;99.90
33793;DHT22;20105;48.764;9.178;2022-11-11T14:52:53;13.70;99.90
33793;DHT22;20105;48.764;9.178;2022-11-11T14:55:35;13.60;99.90
33793;DHT22;20105;48.764;9.178;2022-11-11T15:03:43;13.30;99.90
33793;DHT22;20105;48.764;9.178;2022-11-11T15:06:18;13.20;99.90
33793;DHT22;20105;48.764;9.178;2022-11-11T15:09:02;13.00;99.90
33793;DHT22;20105;48.764;9.178;2022-11-11T15:14:52;12.80;99.90
33793;DHT22;20105;48.764;9.178;2022-11-11T15:23:16;12.40;99.90
33793;DHT22;20105;48.764;9.178;2022-11-11T15:25:58;12.20;99.90
33793;DHT22;20105;48.764;9.178;2022-11-11T15:34:31;11.80;99.90
33793;DHT22;20105;48.764;9.178;2022-11-11T15:37:01;11.70;99.90
33793;DHT22;20105;48.764;9.178;2022-11-11T15:39:38;11.60;99.90
33793;DHT22;20105;48.764;9.178;2022-11-11T15:42:17;11.50;99.90
33793;DHT22;20105;48.764;9.178;2022-11-11T15:44:46;11.30;99.90
33793;DHT22;20105;48.764;9.178;2022-11-11T15:47:14;11.20;99.90
33793;DHT22;20105;48.764;9.178;2022-11-11T15:49:45;11.10;99.90
33793;DHT22;20105;48.764;9.178;2022-11-11T15:54:50;10.90;99.90
33793;DHT22;20105;48.764;9.178;2022-11-11T15:57:31;10.80;99.90
33793;DHT22;20105;48.764;9.178;2022-11-11T15:59:59;10.60;99.90
33793;DHT22;20105;48.764;9.178;2022-11-11T16:02:28;10.50;99.90
33793;DHT22;20105;48.764;9.178;2022-11-11T16:05:00;10.40;99.90
33793;DHT22;20105;48.764;9.178;2022-11-11T16:07:35;10.30;99.90
33793;DHT22;20105;48.764;9.178;2022-11-11T16:10:08;10.30;99.90
33793;DHT22;20105;48.764;9.178;2022-11-11T16:12:52;10.20;99.90
33793;DHT22;20105;48.764;9.178;2022-11-11T16:15:36;10.10;99.90
33793;DHT22;20105;48.764;9.178;2022-11-11T16:18:06;10.10;99.90
33793;DHT22;20105;48.764;9.178;2022-11-11T16:21:03;10.00;99.90
33793;DHT22;20105;48.764;9.178;2022-11-11T16:23:31;9.90;99.90
33793;DHT22;20105;48.764;9.178;2022-11-11T16:25:58;9.90;99.90
33793;DHT22;20105;48.764;9.178;2022-11-11T16:28:26;9.80;99.90
33793;DHT22;20105;48.764;9.178;2022-11-11T16:30:53;9.80;99.90
33793;DHT22;20105;48.764;9.178;2022-11-11T16:33:31;9.70;99.90
33793;DHT22;20105;48.764;9.178;2022-11-11T16:36:10;9.70;99.90
33793;DHT22;20105;48.764;9.178;2022-11-11T16:38:36;9.70;99.90
33793;DHT22;20105;48.764;9.178;2022-11-11T16:41:23;9.60;99.90
33793;DHT22;20105;48.764;9.178;2022-11-11T16:43:49;9.60;99.90
33793;DHT22;20105;48.764;9.178;2022-11-11T16:49:16;9.50;99.90
33793;DHT22;20105;48.764;9.178;2022-11-11T16:51:44;9.40;99.90
33793;DHT22;20105;48.764;9.178;2022-11-11T16:54:11;9.40;99.90
33793;DHT22;20105;48.764;9.178;2022-11-11T16:56:42;9.40;99.90
33793;DHT22;20105;48.764;9.178;2022-11-11T16:59:57;9.40;99.90
33793;DHT22;20105;48.764;9.178;2022-11-11T17:01:57;9.30;99.90
33793;DHT22;20105;48.764;9.178;2022-11-11T17:04:23;9.30;99.90
33793;DHT22;20105;48.764;9.178;2022-11-11T17:06:57;9.20;99.90
33793;DHT22;20105;48.764;9.178;2022-11-11T17:09:29;9.20;99.90
33793;DHT22;20105;48.764;9.178;2022-11-11T17:11:55;9.10;99.90
33793;DHT22;20105;48.764;9.178;2022-11-11T17:14:21;9.10;99.90
33793;DHT22;20105;48.764;9.178;2022-11-11T17:16:47;9.10;99.90
33793;DHT22;20105;48.764;9.178;2022-11-11T17:19:12;9.00;99.90
33793;DHT22;20105;48.764;9.178;2022-11-11T17:21:38;9.00;99.90
33793;DHT22;20105;48.764;9.178;2022-11-11T17:24:04;9.00;99.90
33793;DHT22;20105;48.764;9.178;2022-11-11T17:26:29;9.00;99.90
33793;DHT22;20105;48.764;9.178;2022-11-11T17:28:57;9.00;99.90
33793;DHT22;20105;48.764;9.178;2022-11-11T17:31:23;8.90;99.90
33793;DHT22;20105;48.764;9.178;2022-11-11T17:33:49;8.90;99.90
33793;DHT22;20105;48.764;9.178;2022-11-11T17:36:14;8.90;99.90
33793;DHT22;20105;48.764;9.178;2022-11-11T17:38:40;8.90;99.90
33793;DHT22;20105;48.764;9.178;2022-11-11T17:41:06;8.90;99.90
33793;DHT22;20105;48.764;9.178;2022-11-11T17:43:32;8.80;99.90
33793;DHT22;20105;48.764;9.178;2022-11-11T17:46:02;8.80;99.90
33793;DHT22;20105;48.764;9.178;2022-11-11T17:48:28;8.80;99.90
33793;DHT22;20105;48.764;9.178;2022-11-11T17:50:53;8.70;99.90
33793;DHT22;20105;48.764;9.178;2022-11-11T17:53:19;8.70;99.90
33793;DHT22;20105;48.764;9.178;2022-11-11T17:55:44;8.70;99.90
33793;DHT22;20105;48.764;9.178;2022-11-11T17:58:11;8.70;99.90
33793;DHT22;20105;48.764;9.178;2022-11-11T18:00:38;8.60;99.90
33793;DHT22;20105;48.764;9.178;2022-11-11T18:03:05;8.60;99.90
33793;DHT22;20105;48.764;9.178;2022-11-11T18:05:33;8.60;99.90
33793;DHT22;20105;48.764;9.178;2022-11-11T18:07:58;8.60;99.90
33793;DHT22;20105;48.764;9.178;2022-11-11T18:10:24;8.50;99.90
33793;DHT22;20105;48.764;9.178;2022-11-11T18:12:50;8.50;99.90
33793;DHT22;20105;48.764;9.178;2022-11-11T18:15:15;8.50;99.90
33793;DHT22;20105;48.764;9.178;2022-11-11T18:17:41;8.50;99.90
33793;DHT22;20105;48.764;9.178;2022-11-11T18:20:07;8.50;99.90
33793;DHT22;20105;48.764;9.178;2022-11-11T18:22:33;8.50;99.90
33793;DHT22;20105;48.764;9.178;2022-11-11T18:24:58;8.40;99.90
33793;DHT22;20105;48.764;9.178;2022-11-11T18:27:24;8.40;99.90
33793;DHT22;20105;48.764;9.178;2022-11-11T18:29:50;8.40;99.90